sensor_id;sensor_type;location;lat;lon;timestamp;P1;durP1;ratioP1;P2;durP2;ratioP2
17832;SDS011;9041;49.718;21.798;2022-07-11T00:02:20;4.05;;;1.33;;
17832;SDS011;9041;49.718;21.798;2022-07-11T00:04:49;1.88;;;1.02;;
17832;SDS011;9041;49.718;21.798;2022-07-11T00:07:18;1.77;;;1.10;;
17832;SDS011;9041;49.718;21.798;2022-07-11T00:09:48;1.40;;;1.10;;
17832;SDS011;9041;49.718;21.798;2022-07-11T00:12:14;1.02;;;1.00;;
17832;SDS011;9041;49.718;21.798;2022-07-11T00:14:43;1.85;;;1.48;;
17832;SDS011;9041;49.718;21.798;2022-07-11T00:17:09;3.45;;;1.60;;
17832;SDS011;9041;49.718;21.798;2022-07-11T00:19:37;2.67;;;1.10;;
17832;SDS011;9041;49.718;21.798;2022-07-11T00:22:05;1.42;;;1.23;;
17832;SDS011;9041;49.718;21.798;2022-07-11T00:24:32;2.45;;;1.42;;
17832;SDS011;9041;49.718;21.798;2022-07-11T00:27:00;2.42;;;1.33;;
17832;SDS011;9041;49.718;21.798;2022-07-11T00:29:27;2.78;;;1.30;;
17832;SDS011;9041;49.718;21.798;2022-07-11T00:31:54;4.35;;;1.27;;
17832;SDS011;9041;49.718;21.798;2022-07-11T00:34:21;2.85;;;1.27;;
17832;SDS011;9041;49.718;21.798;2022-07-11T00:36:48;3.08;;;1.20;;
17832;SDS011;9041;49.718;21.798;2022-07-11T00:39:16;2.08;;;1.30;;
17832;SDS011;9041;49.718;21.798;2022-07-11T00:41:45;2.70;;;1.30;;
17832;SDS011;9041;49.718;21.798;2022-07-11T00:44:14;1.63;;;1.25;;
17832;SDS011;9041;49.718;21.798;2022-07-11T00:46:41;3.33;;;1.42;;
17832;SDS011;9041;49.718;21.798;2022-07-11T00:49:10;1.67;;;1.30;;
17832;SDS011;9041;49.718;21.798;2022-07-11T00:51:37;2.97;;;1.88;;
17832;SDS011;9041;49.718;21.798;2022-07-11T00:54:05;2.67;;;1.40;;
17832;SDS011;9041;49.718;21.798;2022-07-11T00:56:34;5.00;;;1.65;;
17832;SDS011;9041;49.718;21.798;2022-07-11T00:59:01;1.58;;;1.30;;
17832;SDS011;9041;49.718;21.798;2022-07-11T01:01:28;3.80;;;1.42;;
17832;SDS011;9041;49.718;21.798;2022-07-11T01:03:55;3.38;;;1.60;;
17832;SDS011;9041;49.718;21.798;2022-07-11T01:06:22;3.45;;;1.50;;
17832;SDS011;9041;49.718;21.798;2022-07-11T01:08:49;5.47;;;1.75;;
17832;SDS011;9041;49.718;21.798;2022-07-11T01:11:16;2.50;;;1.67;;
17832;SDS011;9041;49.718;21.798;2022-07-11T01:13:45;6.82;;;1.65;;
17832;SDS011;9041;49.718;21.798;2022-07-11T01:16:13;3.60;;;1.73;;
17832;SDS011;9041;49.718;21.798;2022-07-11T01:18:41;2.55;;;1.75;;
17832;SDS011;9041;49.718;21.798;2022-07-11T01:21:19;2.75;;;1.73;;
17832;SDS011;9041;49.718;21.798;2022-07-11T01:23:52;2.35;;;1.70;;
17832;SDS011;9041;49.718;21.798;2022-07-11T01:26:20;7.00;;;1.60;;
17832;SDS011;9041;49.718;21.798;2022-07-11T01:28:47;3.00;;;1.75;;
17832;SDS011;9041;49.718;21.798;2022-07-11T01:31:24;4.05;;;1.83;;
17832;SDS011;9041;49.718;21.798;2022-07-11T01:33:51;4.03;;;1.70;;
17832;SDS011;9041;49.718;21.798;2022-07-11T01:36:18;4.38;;;1.70;;
17832;SDS011;9041;49.718;21.798;2022-07-11T01:38:45;4.07;;;1.50;;
17832;SDS011;9041;49.718;21.798;2022-07-11T01:41:13;3.65;;;1.67;;
17832;SDS011;9041;49.718;21.798;2022-07-11T01:43:40;4.78;;;1.90;;
17832;SDS011;9041;49.718;21.798;2022-07-11T01:46:10;4.22;;;1.73;;
17832;SDS011;9041;49.718;21.798;2022-07-11T01:48:37;4.22;;;1.90;;
17832;SDS011;9041;49.718;21.798;2022-07-11T01:51:04;4.05;;;1.67;;
17832;SDS011;9041;49.718;21.798;2022-07-11T01:53:31;3.35;;;1.77;;
17832;SDS011;9041;49.718;21.798;2022-07-11T01:55:58;3.65;;;1.90;;
17832;SDS011;9041;49.718;21.798;2022-07-11T01:58:26;3.13;;;1.70;;
17832;SDS011;9041;49.718;21.798;2022-07-11T02:00:55;3.95;;;1.83;;
17832;SDS011;9041;49.718;21.798;2022-07-11T02:03:22;3.30;;;1.80;;
17832;SDS011;9041;49.718;21.798;2022-07-11T02:05:49;4.03;;;2.33;;
17832;SDS011;9041;49.718;21.798;2022-07-11T02:08:16;4.55;;;2.25;;
17832;SDS011;9041;49.718;21.798;2022-07-11T02:10:43;4.75;;;1.98;;
17832;SDS011;9041;49.718;21.798;2022-07-11T02:13:12;5.85;;;2.00;;
17832;SDS011;9041;49.718;21.798;2022-07-11T02:15:41;5.55;;;1.70;;
17832;SDS011;9041;49.718;21.798;2022-07-11T02:18:11;6.63;;;1.90;;
17832;SDS011;9041;49.718;21.798;2022-07-11T02:20:39;3.13;;;1.80;;
17832;SDS011;9041;49.718;21.798;2022-07-11T02:23:06;3.20;;;1.85;;
17832;SDS011;9041;49.718;21.798;2022-07-11T02:25:33;8.35;;;2.10;;
17832;SDS011;9041;49.718;21.798;2022-07-11T02:28:03;4.88;;;1.90;;
17832;SDS011;9041;49.718;21.798;2022-07-11T02:30:31;7.43;;;1.90;;
17832;SDS011;9041;49.718;21.798;2022-07-11T02:32:59;6.03;;;2.30;;
17832;SDS011;9041;49.718;21.798;2022-07-11T02:35:26;5.88;;;2.13;;
17832;SDS011;9041;49.718;21.798;2022-07-11T02:37:52;6.15;;;2.17;;
17832;SDS011;9041;49.718;21.798;2022-07-11T02:40:19;3.60;;;1.90;;
17832;SDS011;9041;49.718;21.798;2022-07-11T02:42:46;11.38;;;2.60;;
17832;SDS011;9041;49.718;21.798;2022-07-11T02:45:14;9.35;;;2.65;;
17832;SDS011;9041;49.718;21.798;2022-07-11T02:47:42;5.97;;;2.30;;
17832;SDS011;9041;49.718;21.798;2022-07-11T02:50:11;5.15;;;2.13;;
17832;SDS011;9041;49.718;21.798;2022-07-11T02:52:40;4.25;;;2.00;;
17832;SDS011;9041;49.718;21.798;2022-07-11T02:55:17;5.22;;;1.95;;
17832;SDS011;9041;49.718;21.798;2022-07-11T02:57:44;3.67;;;1.90;;
17832;SDS011;9041;49.718;21.798;2022-07-11T03:00:11;5.53;;;2.00;;
17832;SDS011;9041;49.718;21.798;2022-07-11T03:02:40;5.47;;;1.80;;
17832;SDS011;9041;49.718;21.798;2022-07-11T03:05:07;5.50;;;1.80;;
17832;SDS011;9041;49.718;21.798;2022-07-11T03:07:36;6.50;;;1.95;;
17832;SDS011;9041;49.718;21.798;2022-07-11T03:10:03;4.60;;;2.00;;
17832;SDS011;9041;49.718;21.798;2022-07-11T03:12:30;3.08;;;1.77;;
17832;SDS011;9041;49.718;21.798;2022-07-11T03:14:57;4.60;;;1.77;;
17832;SDS011;9041;49.718;21.798;2022-07-11T03:17:24;5.57;;;1.80;;
17832;SDS011;9041;49.718;21.798;2022-07-11T03:19:51;3.28;;;1.70;;
17832;SDS011;9041;49.718;21.798;2022-07-11T03:22:22;4.57;;;1.63;;
17832;SDS011;9041;49.718;21.798;2022-07-11T03:24:50;6.07;;;1.75;;
17832;SDS011;9041;49.718;21.798;2022-07-11T03:27:20;4.47;;;1.65;;
17832;SDS011;9041;49.718;21.798;2022-07-11T03:29:47;6.38;;;1.85;;
17832;SDS011;9041;49.718;21.798;2022-07-11T03:32:14;4.75;;;1.75;;
17832;SDS011;9041;49.718;21.798;2022-07-11T03:34:45;4.75;;;1.70;;
17832;SDS011;9041;49.718;21.798;2022-07-11T03:37:32;3.63;;;1.88;;
17832;SDS011;9041;49.718;21.798;2022-07-11T03:40:00;7.68;;;1.90;;
17832;SDS011;9041;49.718;21.798;2022-07-11T03:42:27;4.70;;;1.73;;
17832;SDS011;9041;49.718;21.798;2022-07-11T03:44:54;6.20;;;2.13;;
17832;SDS011;9041;49.718;21.798;2022-07-11T03:47:21;7.30;;;1.75;;
17832;SDS011;9041;49.718;21.798;2022-07-11T03:49:48;5.55;;;2.13;;
17832;SDS011;9041;49.718;21.798;2022-07-11T03:52:15;9.63;;;2.28;;
17832;SDS011;9041;49.718;21.798;2022-07-11T03:54:41;5.05;;;1.92;;
17832;SDS011;9041;49.718;21.798;2022-07-11T03:57:11;7.63;;;1.98;;
17832;SDS011;9041;49.718;21.798;2022-07-11T03:59:38;8.25;;;2.38;;
17832;SDS011;9041;49.718;21.798;2022-07-11T04:02:05;4.03;;;1.73;;
17832;SDS011;9041;49.718;21.798;2022-07-11T04:04:32;5.78;;;2.10;;
17832;SDS011;9041;49.718;21.798;2022-07-11T04:06:59;3.10;;;1.85;;
17832;SDS011;9041;49.718;21.798;2022-07-11T04:09:26;6.78;;;1.70;;
17832;SDS011;9041;49.718;21.798;2022-07-11T04:11:53;4.65;;;1.92;;
17832;SDS011;9041;49.718;21.798;2022-07-11T04:14:21;6.05;;;1.77;;
17832;SDS011;9041;49.718;21.798;2022-07-11T04:16:49;5.05;;;1.75;;
17832;SDS011;9041;49.718;21.798;2022-07-11T04:19:16;6.95;;;1.80;;
17832;SDS011;9041;49.718;21.798;2022-07-11T04:21:43;3.17;;;1.98;;
17832;SDS011;9041;49.718;21.798;2022-07-11T04:24:10;4.68;;;1.80;;
17832;SDS011;9041;49.718;21.798;2022-07-11T04:26:37;5.70;;;2.17;;
17832;SDS011;9041;49.718;21.798;2022-07-11T04:29:04;4.63;;;1.60;;
17832;SDS011;9041;49.718;21.798;2022-07-11T04:31:32;5.90;;;1.65;;
17832;SDS011;9041;49.718;21.798;2022-07-11T04:33:59;6.25;;;1.48;;
17832;SDS011;9041;49.718;21.798;2022-07-11T04:36:26;6.88;;;1.38;;
17832;SDS011;9041;49.718;21.798;2022-07-11T04:38:53;4.03;;;1.55;;
17832;SDS011;9041;49.718;21.798;2022-07-11T04:41:19;4.80;;;1.40;;
17832;SDS011;9041;49.718;21.798;2022-07-11T04:43:46;4.00;;;1.80;;
17832;SDS011;9041;49.718;21.798;2022-07-11T04:46:13;2.33;;;1.30;;
17832;SDS011;9041;49.718;21.798;2022-07-11T04:48:44;3.60;;;1.30;;
17832;SDS011;9041;49.718;21.798;2022-07-11T04:51:11;4.20;;;1.30;;
17832;SDS011;9041;49.718;21.798;2022-07-11T04:53:38;3.33;;;1.30;;
17832;SDS011;9041;49.718;21.798;2022-07-11T04:56:05;7.50;;;1.48;;
17832;SDS011;9041;49.718;21.798;2022-07-11T04:58:33;3.78;;;1.20;;
17832;SDS011;9041;49.718;21.798;2022-07-11T05:01:00;2.42;;;1.27;;
17832;SDS011;9041;49.718;21.798;2022-07-11T05:03:27;6.10;;;1.38;;
17832;SDS011;9041;49.718;21.798;2022-07-11T05:05:56;4.18;;;1.35;;
17832;SDS011;9041;49.718;21.798;2022-07-11T05:08:23;2.38;;;1.20;;
17832;SDS011;9041;49.718;21.798;2022-07-11T05:10:50;4.30;;;1.38;;
17832;SDS011;9041;49.718;21.798;2022-07-11T05:13:17;4.03;;;1.10;;
17832;SDS011;9041;49.718;21.798;2022-07-11T05:15:44;2.92;;;1.30;;
17832;SDS011;9041;49.718;21.798;2022-07-11T05:18:14;2.20;;;1.27;;
17832;SDS011;9041;49.718;21.798;2022-07-11T05:20:41;3.40;;;1.13;;
17832;SDS011;9041;49.718;21.798;2022-07-11T05:23:09;4.18;;;1.60;;
17832;SDS011;9041;49.718;21.798;2022-07-11T05:25:36;3.85;;;1.50;;
17832;SDS011;9041;49.718;21.798;2022-07-11T05:28:03;4.22;;;1.60;;
17832;SDS011;9041;49.718;21.798;2022-07-11T05:30:30;3.97;;;1.50;;
17832;SDS011;9041;49.718;21.798;2022-07-11T05:32:57;4.28;;;1.70;;
17832;SDS011;9041;49.718;21.798;2022-07-11T05:35:26;5.32;;;1.70;;
17832;SDS011;9041;49.718;21.798;2022-07-11T05:37:58;3.25;;;1.60;;
17832;SDS011;9041;49.718;21.798;2022-07-11T05:40:26;3.67;;;1.83;;
17832;SDS011;9041;49.718;21.798;2022-07-11T05:42:56;1.92;;;1.58;;
17832;SDS011;9041;49.718;21.798;2022-07-11T05:45:26;3.70;;;1.60;;
17832;SDS011;9041;49.718;21.798;2022-07-11T05:47:53;3.05;;;1.65;;
17832;SDS011;9041;49.718;21.798;2022-07-11T05:50:20;2.10;;;1.90;;
17832;SDS011;9041;49.718;21.798;2022-07-11T05:52:47;4.35;;;2.20;;
17832;SDS011;9041;49.718;21.798;2022-07-11T05:55:13;3.38;;;1.90;;
17832;SDS011;9041;49.718;21.798;2022-07-11T05:57:42;2.25;;;2.00;;
17832;SDS011;9041;49.718;21.798;2022-07-11T06:00:09;2.08;;;1.70;;
17832;SDS011;9041;49.718;21.798;2022-07-11T06:02:36;3.70;;;1.90;;
17832;SDS011;9041;49.718;21.798;2022-07-11T06:05:03;4.43;;;1.98;;
17832;SDS011;9041;49.718;21.798;2022-07-11T06:07:31;4.82;;;1.90;;
17832;SDS011;9041;49.718;21.798;2022-07-11T06:10:15;2.83;;;2.00;;
17832;SDS011;9041;49.718;21.798;2022-07-11T06:12:44;2.40;;;2.10;;
17832;SDS011;9041;49.718;21.798;2022-07-11T06:15:11;2.05;;;1.63;;
17832;SDS011;9041;49.718;21.798;2022-07-11T06:17:37;4.70;;;1.80;;
17832;SDS011;9041;49.718;21.798;2022-07-11T06:20:04;3.42;;;1.30;;
17832;SDS011;9041;49.718;21.798;2022-07-11T06:22:33;2.28;;;1.38;;
17832;SDS011;9041;49.718;21.798;2022-07-11T06:25:00;2.38;;;1.10;;
17832;SDS011;9041;49.718;21.798;2022-07-11T06:27:27;1.95;;;1.42;;
17832;SDS011;9041;49.718;21.798;2022-07-11T06:29:55;3.53;;;1.38;;
17832;SDS011;9041;49.718;21.798;2022-07-11T06:32:22;2.20;;;1.02;;
17832;SDS011;9041;49.718;21.798;2022-07-11T06:34:49;4.30;;;1.10;;
17832;SDS011;9041;49.718;21.798;2022-07-11T06:37:16;3.95;;;0.90;;
17832;SDS011;9041;49.718;21.798;2022-07-11T06:39:43;1.48;;;1.20;;
17832;SDS011;9041;49.718;21.798;2022-07-11T06:42:10;2.03;;;1.10;;
17832;SDS011;9041;49.718;21.798;2022-07-11T06:44:37;1.15;;;1.05;;
17832;SDS011;9041;49.718;21.798;2022-07-11T06:47:08;2.47;;;0.95;;
17832;SDS011;9041;49.718;21.798;2022-07-11T06:49:34;2.03;;;1.30;;
17832;SDS011;9041;49.718;21.798;2022-07-11T06:52:01;3.95;;;1.23;;
17832;SDS011;9041;49.718;21.798;2022-07-11T06:54:29;2.65;;;1.48;;
17832;SDS011;9041;49.718;21.798;2022-07-11T06:56:56;4.38;;;1.48;;
17832;SDS011;9041;49.718;21.798;2022-07-11T06:59:23;3.42;;;1.58;;
17832;SDS011;9041;49.718;21.798;2022-07-11T07:01:50;5.63;;;1.40;;
17832;SDS011;9041;49.718;21.798;2022-07-11T07:04:18;3.33;;;1.25;;
17832;SDS011;9041;49.718;21.798;2022-07-11T07:06:49;2.17;;;1.30;;
17832;SDS011;9041;49.718;21.798;2022-07-11T07:09:15;3.63;;;1.48;;
17832;SDS011;9041;49.718;21.798;2022-07-11T07:11:45;5.15;;;1.40;;
17832;SDS011;9041;49.718;21.798;2022-07-11T07:14:12;2.92;;;1.30;;
17832;SDS011;9041;49.718;21.798;2022-07-11T07:16:39;3.92;;;1.23;;
17832;SDS011;9041;49.718;21.798;2022-07-11T07:19:06;2.45;;;1.17;;
17832;SDS011;9041;49.718;21.798;2022-07-11T07:21:34;3.50;;;1.48;;
17832;SDS011;9041;49.718;21.798;2022-07-11T07:24:01;2.75;;;1.50;;
17832;SDS011;9041;49.718;21.798;2022-07-11T07:26:28;2.08;;;1.25;;
17832;SDS011;9041;49.718;21.798;2022-07-11T07:28:57;4.88;;;1.73;;
17832;SDS011;9041;49.718;21.798;2022-07-11T07:31:27;3.00;;;1.20;;
17832;SDS011;9041;49.718;21.798;2022-07-11T07:33:54;1.67;;;1.48;;
17832;SDS011;9041;49.718;21.798;2022-07-11T07:36:21;4.75;;;1.17;;
17832;SDS011;9041;49.718;21.798;2022-07-11T07:38:58;3.30;;;1.30;;
17832;SDS011;9041;49.718;21.798;2022-07-11T07:41:26;5.18;;;1.17;;
17832;SDS011;9041;49.718;21.798;2022-07-11T07:43:53;2.92;;;1.00;;
17832;SDS011;9041;49.718;21.798;2022-07-11T07:46:20;2.35;;;1.00;;
17832;SDS011;9041;49.718;21.798;2022-07-11T07:48:52;1.55;;;0.90;;
17832;SDS011;9041;49.718;21.798;2022-07-11T07:51:19;6.10;;;1.20;;
17832;SDS011;9041;49.718;21.798;2022-07-11T07:53:47;3.58;;;1.25;;
17832;SDS011;9041;49.718;21.798;2022-07-11T07:56:17;2.22;;;1.10;;
17832;SDS011;9041;49.718;21.798;2022-07-11T07:58:44;2.90;;;1.23;;
17832;SDS011;9041;49.718;21.798;2022-07-11T08:01:12;4.05;;;1.20;;
17832;SDS011;9041;49.718;21.798;2022-07-11T08:03:56;2.00;;;0.93;;
17832;SDS011;9041;49.718;21.798;2022-07-11T08:06:27;1.92;;;1.08;;
17832;SDS011;9041;49.718;21.798;2022-07-11T08:08:55;1.77;;;0.88;;
17832;SDS011;9041;49.718;21.798;2022-07-11T08:11:24;3.80;;;1.00;;
17832;SDS011;9041;49.718;21.798;2022-07-11T08:13:51;2.00;;;0.82;;
17832;SDS011;9041;49.718;21.798;2022-07-11T08:16:19;3.97;;;1.10;;
17832;SDS011;9041;49.718;21.798;2022-07-11T08:18:46;1.92;;;0.82;;
17832;SDS011;9041;49.718;21.798;2022-07-11T08:21:13;3.33;;;1.00;;
17832;SDS011;9041;49.718;21.798;2022-07-11T08:23:40;1.92;;;0.80;;
17832;SDS011;9041;49.718;21.798;2022-07-11T08:26:07;2.80;;;0.93;;
17832;SDS011;9041;49.718;21.798;2022-07-11T08:28:38;2.05;;;0.90;;
17832;SDS011;9041;49.718;21.798;2022-07-11T08:31:12;4.47;;;1.10;;
17832;SDS011;9041;49.718;21.798;2022-07-11T08:33:42;3.53;;;1.20;;
17832;SDS011;9041;49.718;21.798;2022-07-11T08:36:10;2.60;;;0.80;;
17832;SDS011;9041;49.718;21.798;2022-07-11T08:38:37;2.10;;;0.80;;
17832;SDS011;9041;49.718;21.798;2022-07-11T08:41:10;3.05;;;0.80;;
17832;SDS011;9041;49.718;21.798;2022-07-11T08:43:47;2.03;;;0.80;;
17832;SDS011;9041;49.718;21.798;2022-07-11T08:46:25;2.42;;;0.80;;
17832;SDS011;9041;49.718;21.798;2022-07-11T08:48:53;2.60;;;1.00;;
17832;SDS011;9041;49.718;21.798;2022-07-11T08:51:21;1.98;;;0.90;;
17832;SDS011;9041;49.718;21.798;2022-07-11T08:53:57;4.28;;;0.90;;
17832;SDS011;9041;49.718;21.798;2022-07-11T08:56:27;3.03;;;0.82;;
17832;SDS011;9041;49.718;21.798;2022-07-11T08:58:55;4.05;;;1.15;;
17832;SDS011;9041;49.718;21.798;2022-07-11T09:01:27;1.65;;;0.85;;
17832;SDS011;9041;49.718;21.798;2022-07-11T09:03:58;2.25;;;0.80;;
17832;SDS011;9041;49.718;21.798;2022-07-11T09:06:38;3.05;;;0.80;;
17832;SDS011;9041;49.718;21.798;2022-07-11T09:09:05;1.35;;;0.80;;
17832;SDS011;9041;49.718;21.798;2022-07-11T09:11:48;4.78;;;1.00;;
17832;SDS011;9041;49.718;21.798;2022-07-11T09:14:26;2.95;;;0.73;;
17832;SDS011;9041;49.718;21.798;2022-07-11T09:16:58;2.50;;;1.02;;
17832;SDS011;9041;49.718;21.798;2022-07-11T09:19:26;4.68;;;1.10;;
17832;SDS011;9041;49.718;21.798;2022-07-11T09:21:59;1.95;;;1.05;;
17832;SDS011;9041;49.718;21.798;2022-07-11T09:27:49;2.28;;;1.10;;
17832;SDS011;9041;49.718;21.798;2022-07-11T09:30:23;2.55;;;1.17;;
17832;SDS011;9041;49.718;21.798;2022-07-11T09:32:55;4.03;;;1.25;;
17832;SDS011;9041;49.718;21.798;2022-07-11T09:35:24;5.05;;;1.42;;
17832;SDS011;9041;49.718;21.798;2022-07-11T09:37:56;3.58;;;1.20;;
17832;SDS011;9041;49.718;21.798;2022-07-11T09:40:24;2.95;;;0.90;;
17832;SDS011;9041;49.718;21.798;2022-07-11T09:42:52;4.22;;;1.73;;
17832;SDS011;9041;49.718;21.798;2022-07-11T09:45:21;3.80;;;1.40;;
17832;SDS011;9041;49.718;21.798;2022-07-11T09:48:01;6.53;;;1.67;;
17832;SDS011;9041;49.718;21.798;2022-07-11T09:50:34;3.90;;;1.30;;
17832;SDS011;9041;49.718;21.798;2022-07-11T09:53:04;3.83;;;1.05;;
17832;SDS011;9041;49.718;21.798;2022-07-11T09:55:35;3.05;;;1.30;;
17832;SDS011;9041;49.718;21.798;2022-07-11T09:58:03;2.97;;;0.90;;
17832;SDS011;9041;49.718;21.798;2022-07-11T10:00:33;1.05;;;0.75;;
17832;SDS011;9041;49.718;21.798;2022-07-11T10:03:02;1.67;;;0.90;;
17832;SDS011;9041;49.718;21.798;2022-07-11T10:05:30;1.25;;;0.75;;
17832;SDS011;9041;49.718;21.798;2022-07-11T10:08:00;2.25;;;0.68;;
17832;SDS011;9041;49.718;21.798;2022-07-11T10:10:30;0.82;;;0.60;;
17832;SDS011;9041;49.718;21.798;2022-07-11T10:12:58;0.98;;;0.80;;
17832;SDS011;9041;49.718;21.798;2022-07-11T10:15:29;0.95;;;0.70;;
17832;SDS011;9041;49.718;21.798;2022-07-11T10:18:09;0.88;;;0.70;;
17832;SDS011;9041;49.718;21.798;2022-07-11T10:20:56;0.70;;;0.70;;
17832;SDS011;9041;49.718;21.798;2022-07-11T10:23:44;0.93;;;0.70;;
17832;SDS011;9041;49.718;21.798;2022-07-11T10:26:20;1.95;;;0.90;;
17832;SDS011;9041;49.718;21.798;2022-07-11T10:28:53;1.15;;;1.00;;
17832;SDS011;9041;49.718;21.798;2022-07-11T10:31:26;1.05;;;0.90;;
17832;SDS011;9041;49.718;21.798;2022-07-11T10:33:59;1.55;;;1.15;;
17832;SDS011;9041;49.718;21.798;2022-07-11T10:36:28;1.27;;;0.93;;
17832;SDS011;9041;49.718;21.798;2022-07-11T10:41:49;0.88;;;0.70;;
17832;SDS011;9041;49.718;21.798;2022-07-11T10:44:17;2.35;;;0.98;;
17832;SDS011;9041;49.718;21.798;2022-07-11T10:46:45;1.85;;;0.70;;
17832;SDS011;9041;49.718;21.798;2022-07-11T10:49:16;1.85;;;0.70;;
17832;SDS011;9041;49.718;21.798;2022-07-11T10:51:51;2.47;;;0.68;;
17832;SDS011;9041;49.718;21.798;2022-07-11T10:54:34;0.82;;;0.68;;
17832;SDS011;9041;49.718;21.798;2022-07-11T10:57:16;1.13;;;0.50;;
17832;SDS011;9041;49.718;21.798;2022-07-11T10:59:55;0.82;;;0.60;;
17832;SDS011;9041;49.718;21.798;2022-07-11T11:02:30;2.42;;;0.70;;
17832;SDS011;9041;49.718;21.798;2022-07-11T11:04:58;1.45;;;0.70;;
17832;SDS011;9041;49.718;21.798;2022-07-11T11:07:30;1.00;;;0.70;;
17832;SDS011;9041;49.718;21.798;2022-07-11T11:10:03;1.25;;;0.73;;
17832;SDS011;9041;49.718;21.798;2022-07-11T11:15:39;2.25;;;1.00;;
17832;SDS011;9041;49.718;21.798;2022-07-11T11:18:32;2.55;;;1.10;;
17832;SDS011;9041;49.718;21.798;2022-07-11T11:21:13;2.08;;;0.88;;
17832;SDS011;9041;49.718;21.798;2022-07-11T11:24:02;6.53;;;3.20;;
17832;SDS011;9041;49.718;21.798;2022-07-11T11:26:47;6.72;;;3.45;;
17832;SDS011;9041;49.718;21.798;2022-07-11T11:29:25;1.50;;;0.70;;
17832;SDS011;9041;49.718;21.798;2022-07-11T11:31:57;0.50;;;0.50;;
17832;SDS011;9041;49.718;21.798;2022-07-11T11:34:27;1.05;;;0.85;;
17832;SDS011;9041;49.718;21.798;2022-07-11T11:36:59;2.80;;;0.70;;
17832;SDS011;9041;49.718;21.798;2022-07-11T11:39:31;1.17;;;0.70;;
17832;SDS011;9041;49.718;21.798;2022-07-11T11:42:10;0.68;;;0.55;;
17832;SDS011;9041;49.718;21.798;2022-07-11T11:47:23;1.58;;;0.80;;
17832;SDS011;9041;49.718;21.798;2022-07-11T11:49:52;0.70;;;0.70;;
17832;SDS011;9041;49.718;21.798;2022-07-11T11:52:19;2.95;;;0.80;;
17832;SDS011;9041;49.718;21.798;2022-07-11T11:54:52;1.38;;;1.00;;
17832;SDS011;9041;49.718;21.798;2022-07-11T11:57:23;0.93;;;0.63;;
17832;SDS011;9041;49.718;21.798;2022-07-11T11:59:54;2.33;;;1.08;;
17832;SDS011;9041;49.718;21.798;2022-07-11T12:02:25;5.13;;;1.00;;
17832;SDS011;9041;49.718;21.798;2022-07-11T12:04:56;1.67;;;1.10;;
17832;SDS011;9041;49.718;21.798;2022-07-11T12:07:26;7.63;;;1.42;;
17832;SDS011;9041;49.718;21.798;2022-07-11T12:09:55;2.70;;;1.10;;
17832;SDS011;9041;49.718;21.798;2022-07-11T12:12:27;4.43;;;1.20;;
17832;SDS011;9041;49.718;21.798;2022-07-11T12:15:30;2.72;;;1.33;;
17832;SDS011;9041;49.718;21.798;2022-07-11T12:18:00;4.00;;;0.95;;
17832;SDS011;9041;49.718;21.798;2022-07-11T12:23:16;3.00;;;1.02;;
17832;SDS011;9041;49.718;21.798;2022-07-11T12:25:46;1.88;;;1.10;;
17832;SDS011;9041;49.718;21.798;2022-07-11T12:28:22;2.85;;;1.20;;
17832;SDS011;9041;49.718;21.798;2022-07-11T12:30:53;3.10;;;1.17;;
17832;SDS011;9041;49.718;21.798;2022-07-11T12:33:21;3.20;;;1.42;;
17832;SDS011;9041;49.718;21.798;2022-07-11T12:35:54;2.88;;;1.30;;
17832;SDS011;9041;49.718;21.798;2022-07-11T12:38:22;2.33;;;1.45;;
17832;SDS011;9041;49.718;21.798;2022-07-11T12:40:59;4.35;;;1.10;;
17832;SDS011;9041;49.718;21.798;2022-07-11T12:43:40;5.82;;;1.23;;
17832;SDS011;9041;49.718;21.798;2022-07-11T12:46:21;3.75;;;1.20;;
17832;SDS011;9041;49.718;21.798;2022-07-11T12:48:49;2.70;;;1.55;;
17832;SDS011;9041;49.718;21.798;2022-07-11T12:54:03;3.80;;;1.30;;
17832;SDS011;9041;49.718;21.798;2022-07-11T12:56:31;3.75;;;1.27;;
17832;SDS011;9041;49.718;21.798;2022-07-11T12:58:59;1.85;;;1.10;;
17832;SDS011;9041;49.718;21.798;2022-07-11T13:01:27;3.42;;;1.30;;
17832;SDS011;9041;49.718;21.798;2022-07-11T13:03:55;5.28;;;1.30;;
17832;SDS011;9041;49.718;21.798;2022-07-11T13:06:24;4.22;;;1.33;;
17832;SDS011;9041;49.718;21.798;2022-07-11T13:09:17;3.40;;;1.13;;
17832;SDS011;9041;49.718;21.798;2022-07-11T13:11:46;4.00;;;1.30;;
17832;SDS011;9041;49.718;21.798;2022-07-11T13:14:15;2.03;;;1.20;;
17832;SDS011;9041;49.718;21.798;2022-07-11T13:17:00;4.22;;;1.15;;
17832;SDS011;9041;49.718;21.798;2022-07-11T13:19:28;3.38;;;1.35;;
17832;SDS011;9041;49.718;21.798;2022-07-11T13:21:58;4.40;;;1.08;;
17832;SDS011;9041;49.718;21.798;2022-07-11T13:24:27;3.15;;;0.93;;
17832;SDS011;9041;49.718;21.798;2022-07-11T13:26:57;4.72;;;0.88;;
17832;SDS011;9041;49.718;21.798;2022-07-11T13:29:28;2.17;;;1.00;;
17832;SDS011;9041;49.718;21.798;2022-07-11T13:31:56;2.08;;;1.00;;
17832;SDS011;9041;49.718;21.798;2022-07-11T13:34:23;2.67;;;0.95;;
17832;SDS011;9041;49.718;21.798;2022-07-11T13:36:51;3.55;;;1.00;;
17832;SDS011;9041;49.718;21.798;2022-07-11T13:39:21;2.33;;;0.95;;
17832;SDS011;9041;49.718;21.798;2022-07-11T13:41:54;2.50;;;0.98;;
17832;SDS011;9041;49.718;21.798;2022-07-11T13:44:24;4.72;;;1.10;;
17832;SDS011;9041;49.718;21.798;2022-07-11T13:46:54;5.10;;;1.13;;
17832;SDS011;9041;49.718;21.798;2022-07-11T13:49:24;4.68;;;1.02;;
17832;SDS011;9041;49.718;21.798;2022-07-11T13:51:51;2.80;;;1.00;;
17832;SDS011;9041;49.718;21.798;2022-07-11T13:54:21;2.90;;;1.00;;
17832;SDS011;9041;49.718;21.798;2022-07-11T13:56:57;1.60;;;0.98;;
17832;SDS011;9041;49.718;21.798;2022-07-11T13:59:24;4.20;;;0.90;;
17832;SDS011;9041;49.718;21.798;2022-07-11T14:01:53;3.45;;;1.20;;
17832;SDS011;9041;49.718;21.798;2022-07-11T14:04:20;1.70;;;0.85;;
17832;SDS011;9041;49.718;21.798;2022-07-11T14:06:51;2.88;;;1.00;;
17832;SDS011;9041;49.718;21.798;2022-07-11T14:09:18;1.92;;;0.80;;
17832;SDS011;9041;49.718;21.798;2022-07-11T14:11:46;3.30;;;0.70;;
17832;SDS011;9041;49.718;21.798;2022-07-11T14:14:16;2.85;;;0.77;;
17832;SDS011;9041;49.718;21.798;2022-07-11T14:16:46;2.13;;;0.80;;
17832;SDS011;9041;49.718;21.798;2022-07-11T14:19:15;6.55;;;0.90;;
17832;SDS011;9041;49.718;21.798;2022-07-11T14:21:46;1.35;;;0.70;;
17832;SDS011;9041;49.718;21.798;2022-07-11T14:24:14;1.58;;;0.63;;
17832;SDS011;9041;49.718;21.798;2022-07-11T14:26:42;3.30;;;0.90;;
17832;SDS011;9041;49.718;21.798;2022-07-11T14:29:11;2.67;;;1.00;;
17832;SDS011;9041;49.718;21.798;2022-07-11T14:31:42;7.63;;;2.40;;
17832;SDS011;9041;49.718;21.798;2022-07-11T14:34:09;2.10;;;1.20;;
17832;SDS011;9041;49.718;21.798;2022-07-11T14:36:41;2.70;;;0.90;;
17832;SDS011;9041;49.718;21.798;2022-07-11T14:39:08;5.50;;;2.92;;
17832;SDS011;9041;49.718;21.798;2022-07-11T14:41:37;2.38;;;1.60;;
17832;SDS011;9041;49.718;21.798;2022-07-11T14:44:06;23.95;;;9.55;;
17832;SDS011;9041;49.718;21.798;2022-07-11T14:46:34;31.92;;;11.73;;
17832;SDS011;9041;49.718;21.798;2022-07-11T14:49:06;5.90;;;2.90;;
17832;SDS011;9041;49.718;21.798;2022-07-11T14:51:36;9.32;;;4.22;;
17832;SDS011;9041;49.718;21.798;2022-07-11T14:54:04;34.55;;;14.02;;
17832;SDS011;9041;49.718;21.798;2022-07-11T14:56:33;19.13;;;10.05;;
17832;SDS011;9041;49.718;21.798;2022-07-11T14:59:02;10.10;;;4.78;;
17832;SDS011;9041;49.718;21.798;2022-07-11T15:01:30;7.30;;;4.60;;
17832;SDS011;9041;49.718;21.798;2022-07-11T15:03:57;4.05;;;2.88;;
17832;SDS011;9041;49.718;21.798;2022-07-11T15:06:35;4.18;;;2.78;;
17832;SDS011;9041;49.718;21.798;2022-07-11T15:09:20;2.95;;;1.48;;
17832;SDS011;9041;49.718;21.798;2022-07-11T15:12:05;1.98;;;1.05;;
17832;SDS011;9041;49.718;21.798;2022-07-11T15:14:49;3.13;;;1.30;;
17832;SDS011;9041;49.718;21.798;2022-07-11T15:17:23;3.92;;;1.05;;
17832;SDS011;9041;49.718;21.798;2022-07-11T15:19:55;1.85;;;1.10;;
17832;SDS011;9041;49.718;21.798;2022-07-11T15:22:25;1.67;;;1.00;;